CheckWX is a tool to help pilots better visualize weather data.  It is not intended as a substitute for an official pre-flight weather briefing.

21:05:06 UTC

KCPU METAR
Calaveras Co-Maury Rasmussen Field Airport
San Andreas, California, USA
Current

35 mins ago

KCPU 202030Z AUTO 22010KT 10SM BKN120 18/10 A2993 RMK AO2 T01840101
Observed
Apr-20 @ 20:30 UTC
Wind
  • 220° at 10 KTS
Visibility
10 SM
Flight Rules
VFR
Cloud Levels
  • Broken at 12,000' AGL
Temperature
18°C / 64°F
Dewpoint
10°C / 50°F
Humidity
60%
Altimeter
29.93" Hg
Pressure
1013.52 hPa
Previous

55 mins ago

KCPU 202010Z AUTO 20007KT 10SM BKN120 18/11 A2993 RMK AO2 T01820107
Observed
Apr-20 @ 20:10 UTC
Wind
  • 200° at 7 KTS
Visibility
10 SM
Flight Rules
VFR
Cloud Levels
  • Broken at 12,000' AGL
Temperature
18°C / 64°F
Dewpoint
11°C / 52°F
Humidity
64%
Altimeter
29.93" Hg
Pressure
1013.52 hPa
Previous

1 hour ago

KCPU 201950Z AUTO 16008KT 140V200 10SM BKN120 18/11 A2993 RMK AO2 T01790107
Observed
Apr-20 @ 19:50 UTC
Wind
  • 160° at 8 KTS
Visibility
10 SM
Flight Rules
VFR
Cloud Levels
  • Broken at 12,000' AGL
Temperature
18°C / 64°F
Dewpoint
11°C / 52°F
Humidity
64%
Altimeter
29.93" Hg
Pressure
1013.52 hPa